Nearby METAR Reports

 

KCOQ - Cloquet, Minnesota, USA
Distance from station: S 10mi, 16km
Updated: Tue, 04-Oct-2022 4:15am CDT
Mostly cloudy
Mostly cloudy
 Wind from calm
Wind: Calm
Temperature: 55°F , 13°C
Dew Point: 48°F , 9°C
Humidity: 77%
Barometer: 30.14 inHg , 1020.7 hPa
Clouds: Mostly cloudy
Visibility: 10 miles , 16 km
Cloud details: Mostly cloudy 11000 ft
2022/10/04 09:15 KCOQ 040915Z AUTO 00000KT 10SM BKN110 13/09 A3014 RMK AO2 TSNO
KDLH - Duluth, Minnesota, USA
Distance from station: E 13mi, 20km
Updated: Tue, 04-Oct-2022 3:55am CDT
Overcast
Overcast
 Wind from SSW
Wind: SSW 7 mph , 11 km/h
Temperature: 57°F , 14°C
Dew Point: 48°F , 9°C
Humidity: 72%
Barometer: 30.15 inHg , 1021 hPa
Clouds: Overcast
Visibility: 10 miles , 16 km
Cloud details: Overcast 11000 ft
2022/10/04 08:55 KDLH 040855Z 20006KT 10SM OVC110 14/09 A3015 RMK AO2 SLP212 T01390094 56005
 
KSUW - Superior, Wisconsin, USA
Distance from station: ESE 21mi, 33km
Updated: Tue, 04-Oct-2022 4:15am CDT
Partly cloudy
Partly cloudy
 Wind from calm
Wind: Calm
Temperature: 52°F , 11°C
Dew Point: 52°F , 11°C
Humidity: 100%
Barometer: 30.15 inHg , 1021 hPa
Clouds: Partly cloudy
Visibility: 10 miles , 16 km
Cloud details: Partly cloudy 11000 ft
2022/10/04 09:15 KSUW 040915Z AUTO 00000KT 10SM SCT110 11/11 A3015 RMK AO2 T01090107
KDYT - Duluth (sky Harb, Minnesota, USA
Distance from station: ESE 22mi, 36km
Updated: Tue, 04-Oct-2022 4:15am CDT
Overcast
Overcast
 Wind from calm
Wind: Calm
Temperature: 57°F , 14°C
Dew Point: 52°F , 11°C
Humidity: 82%
Barometer: 30.14 inHg , 1020.7 hPa
Clouds: Overcast
Visibility: 10 miles , 16 km
Cloud details: Overcast 11000 ft
2022/10/04 09:15 KDYT 040915Z AUTO 00000KT 10SM OVC110 14/11 A3014 RMK AO2
 
KTWM - Two Harbors, Minnesota, USA
Distance from station: ENE 36mi, 58km
Updated: Tue, 04-Oct-2022 4:15am CDT
Partly cloudy
Partly cloudy
 Wind from calm
Wind: Calm
Temperature: 54°F , 12°C
Dew Point: 54°F , 12°C
Humidity: 100%
Barometer: 30.15 inHg , 1021 hPa
Clouds: Partly cloudy
Visibility: 7 miles , 11 km
Cloud details: Partly cloudy 11000 ft
2022/10/04 09:15 KTWM 040915Z AUTO 00000KT 7SM SCT110 12/12 A3015 RMK AO2
KEVM - Eveleth Muni, Minnesota, USA
Distance from station: N 39mi, 63km
Updated: Tue, 04-Oct-2022 4:15am CDT
Partly cloudy
Partly cloudy
 Wind from calm
Wind: Calm
Temperature: 52°F , 11°C
Dew Point: 50°F , 10°C
Humidity: 94%
Barometer: 30.15 inHg , 1021 hPa
Clouds: Partly cloudy
Visibility: 10 miles , 16 km
Cloud details: Partly cloudy 11000 ft
2022/10/04 09:15 KEVM 040915Z AUTO 00000KT 10SM SCT110 11/10 A3015 RMK AO2 T01060102
 
KHIB - Hibbing, Minnesota, USA
Distance from station: NNW 41mi, 66km
Updated: Tue, 04-Oct-2022 3:53am CDT
Partly cloudy
Partly cloudy
 Wind from SE
Wind: SE 3 mph , 6 km/h
Temperature: 52°F , 11°C
Dew Point: 52°F , 11°C
Humidity: 100%
Barometer: 30.13 inHg , 1020.3 hPa
Clouds: Partly cloudy
Visibility: 8 miles , 13 km
Cloud details: Partly cloudy 7500 ft
Partly cloudy 12000 ft
2022/10/04 08:53 KHIB 040853Z AUTO 13003KT 8SM SCT075 SCT120 11/11 A3013 RMK AO2 SLP204 T01060106 58013
KHZX - Mcgregor/Iverson, Minnesota, USA
Distance from station: WSW 43mi, 69km
Updated: Tue, 04-Oct-2022 4:15am CDT
Mostly cloudy
Mostly cloudy
 Wind from calm
Wind: Calm
Temperature: 54°F , 12°C
Dew Point: 50°F , 10°C
Humidity: 88%
Barometer: 30.12 inHg , 1020 hPa
Clouds: Mostly cloudy
Visibility: 10 miles , 16 km
Cloud details: Mostly cloudy 12000 ft
2022/10/04 09:15 KHZX 040915Z AUTO 00000KT 10SM BKN120 12/10 A3012 RMK AO2
 
KOLG - Solon Springs, Wisconsin, USA
Distance from station: SE 48mi, 77km
Updated: Tue, 04-Oct-2022 4:15am CDT
Overcast
Overcast
 Wind from calm
Wind: Calm
Temperature: 52°F , 11°C
Dew Point: 50°F , 10°C
Humidity: 94%
Barometer: 30.17 inHg , 1021.7 hPa
Clouds: Overcast
Visibility: 10 miles , 16 km
Cloud details: Overcast 10000 ft
2022/10/04 09:15 KOLG 040915Z AUTO 00000KT 10SM OVC100 11/10 A3017 RMK AO1